QTR8839 EBLG-OTHH
Flight info
| Callsign | QTR8839 |
|---|---|
| Flight time | N/A |
| Altitude | 23000 |
| Route | LNO DCT ARCKY L607 ROPUV/N0484F350 L607 ULNOK DCT VIBOM DCT NOMBO DCT KUMOM DCT DARZA DCT PINDO/N0477F370 DCT PAXIS Y707 OBRAN L321 REXUM M872 WEJ L604 GAS G662 KSA M440 SITER DCT LADBO T142 LAEEB |
| Aircraft | B77L/H-SDE1E2E3FGHIJ2J3J4J5M1RWXY/LB1D1 |
Departure
| Time | 2026-04-21 07:51 |
|---|---|
| Airport | Liège Airport (EBLG) |
Arrival
| Time | N/A |
|---|---|
| Airport | Hamad International Airport (OTHH) |
| Time | Latitude | Longitude | Altitude | Speed | Heading |
|---|---|---|---|---|---|
| 2026-04-21 07:22 | 50.63654 | 5.43169 | 643 ft | 0 kts | 315° |
| 2026-04-21 07:43 | 50.63653 | 5.43170 | 643 ft | 1 kts | 315° |
| 2026-04-21 07:43 | 50.63636 | 5.43197 | 646 ft | 4 kts | 316° |
| 2026-04-21 07:43 | 50.63617 | 5.43226 | 643 ft | 4 kts | 316° |
| 2026-04-21 07:43 | 50.63599 | 5.43254 | 643 ft | 4 kts | 299° |
| 2026-04-21 07:44 | 50.63592 | 5.43288 | 643 ft | 4 kts | 263° |
| 2026-04-21 07:44 | 50.63600 | 5.43323 | 643 ft | 4 kts | 233° |
| 2026-04-21 07:44 | 50.63609 | 5.43342 | 643 ft | 0 kts | 225° |
| 2026-04-21 07:47 | 50.63609 | 5.43341 | 643 ft | 1 kts | 225° |
| 2026-04-21 07:47 | 50.63572 | 5.43283 | 648 ft | 12 kts | 225° |
| 2026-04-21 07:47 | 50.63511 | 5.43186 | 643 ft | 13 kts | 226° |
| 2026-04-21 07:48 | 50.63450 | 5.43086 | 646 ft | 13 kts | 226° |
| 2026-04-21 07:48 | 50.63385 | 5.42992 | 648 ft | 13 kts | 209° |
| 2026-04-21 07:48 | 50.63306 | 5.42931 | 649 ft | 13 kts | 204° |
| 2026-04-21 07:48 | 50.63224 | 5.42883 | 646 ft | 13 kts | 182° |
| 2026-04-21 07:49 | 50.63143 | 5.42930 | 648 ft | 13 kts | 160° |
| 2026-04-21 07:49 | 50.63056 | 5.42952 | 653 ft | 13 kts | 172° |
| 2026-04-21 07:49 | 50.62973 | 5.43000 | 663 ft | 13 kts | 146° |
| 2026-04-21 07:49 | 50.62922 | 5.43081 | 666 ft | 7 kts | 127° |
| 2026-04-21 07:50 | 50.62930 | 5.43123 | 665 ft | 5 kts | 52° |
| 2026-04-21 07:50 | 50.62977 | 5.43201 | 663 ft | 22 kts | 45° |
| 2026-04-21 07:50 | 50.63238 | 5.43616 | 656 ft | 90 kts | 45° |
| 2026-04-21 07:50 | 50.63841 | 5.44569 | 630 ft | 155 kts | 45° |
| 2026-04-21 07:51 | 50.64692 | 5.45937 | 811 ft | 181 kts | 46° |
| 2026-04-21 07:51 | 50.65570 | 5.47330 | 1525 ft | 177 kts | 45° |
| 2026-04-21 07:51 | 50.66456 | 5.48707 | 2169 ft | 180 kts | 45° |
| 2026-04-21 07:51 | 50.67365 | 5.50145 | 2566 ft | 197 kts | 46° |
| 2026-04-21 07:52 | 50.68363 | 5.51757 | 3046 ft | 209 kts | 47° |
| 2026-04-21 07:52 | 50.69396 | 5.53415 | 3717 ft | 213 kts | 46° |
| 2026-04-21 07:52 | 50.70447 | 5.55077 | 4419 ft | 215 kts | 47° |
| 2026-04-21 07:52 | 50.71527 | 5.56723 | 5069 ft | 217 kts | 39° |
| 2026-04-21 07:53 | 50.72934 | 5.57589 | 5606 ft | 228 kts | 6° |
| 2026-04-21 07:53 | 50.74516 | 5.57071 | 6261 ft | 240 kts | 334° |
| 2026-04-21 07:53 | 50.75725 | 5.55196 | 6854 ft | 252 kts | 298° |
| 2026-04-21 07:53 | 50.76262 | 5.52551 | 7394 ft | 255 kts | 285° |
| 2026-04-21 07:54 | 50.76714 | 5.49793 | 7972 ft | 260 kts | 287° |
| 2026-04-21 07:54 | 50.77182 | 5.47062 | 8662 ft | 260 kts | 287° |
| 2026-04-21 07:54 | 50.77664 | 5.44293 | 9291 ft | 262 kts | 287° |
| 2026-04-21 07:54 | 50.78135 | 5.41483 | 9907 ft | 265 kts | 285° |
| 2026-04-21 07:55 | 50.78540 | 5.38632 | 10536 ft | 266 kts | 284° |
| 2026-04-21 07:55 | 50.78933 | 5.35752 | 11185 ft | 268 kts | 284° |
| 2026-04-21 07:55 | 50.79335 | 5.32862 | 11851 ft | 270 kts | 284° |
| 2026-04-21 07:55 | 50.79737 | 5.29989 | 12545 ft | 272 kts | 285° |
| 2026-04-21 07:56 | 50.80150 | 5.27067 | 13253 ft | 273 kts | 285° |
| 2026-04-21 07:56 | 50.80566 | 5.24127 | 13944 ft | 275 kts | 285° |
| 2026-04-21 07:56 | 50.80851 | 5.21127 | 14519 ft | 280 kts | 267° |
| 2026-04-21 07:56 | 50.80280 | 5.18171 | 15026 ft | 286 kts | 235° |
| 2026-04-21 07:57 | 50.78853 | 5.16023 | 15626 ft | 285 kts | 205° |
| 2026-04-21 07:57 | 50.76962 | 5.15242 | 16206 ft | 282 kts | 176° |
| 2026-04-21 07:57 | 50.75008 | 5.15454 | 16698 ft | 284 kts | 172° |
| 2026-04-21 07:57 | 50.73019 | 5.15744 | 17257 ft | 288 kts | 172° |
| 2026-04-21 07:58 | 50.71039 | 5.16119 | 17845 ft | 286 kts | 162° |
| 2026-04-21 07:58 | 50.69298 | 5.17568 | 18247 ft | 287 kts | 134° |
| 2026-04-21 07:58 | 50.68059 | 5.20103 | 18375 ft | 300 kts | 120° |
| 2026-04-21 07:58 | 50.66946 | 5.22970 | 18538 ft | 321 kts | 119° |
| 2026-04-21 07:59 | 50.65749 | 5.26077 | 18698 ft | 342 kts | 119° |
| 2026-04-21 07:59 | 50.64473 | 5.29381 | 18870 ft | 363 kts | 120° |
| 2026-04-21 07:59 | 50.63115 | 5.32878 | 19026 ft | 384 kts | 120° |
| 2026-04-21 07:59 | 50.61674 | 5.36545 | 19267 ft | 402 kts | 120° |
| 2026-04-21 08:00 | 50.60146 | 5.40317 | 19723 ft | 412 kts | 121° |
| 2026-04-21 08:00 | 50.58573 | 5.44141 | 20320 ft | 418 kts | 121° |
| 2026-04-21 08:00 | 50.57000 | 5.47947 | 20995 ft | 422 kts | 121° |
| 2026-04-21 08:00 | 50.55393 | 5.51842 | 21695 ft | 424 kts | 121° |
| 2026-04-21 08:01 | 50.53778 | 5.55758 | 22368 ft | 427 kts | 121° |
| 2026-04-21 08:01 | 50.52156 | 5.59691 | 22988 ft | 430 kts | 121° |
| 2026-04-21 08:01 | 50.50519 | 5.63657 | 23242 ft | 434 kts | 121° |
| 2026-04-21 08:02 | 50.47232 | 5.71613 | 23238 ft | 433 kts | 122° |
| 2026-04-21 08:02 | 50.45593 | 5.75574 | 23238 ft | 433 kts | 122° |
| 2026-04-21 08:02 | 50.43954 | 5.79528 | 23238 ft | 432 kts | 122° |
| 2026-04-21 08:02 | 50.42316 | 5.83475 | 23238 ft | 432 kts | 122° |
| 2026-04-21 08:03 | 50.40674 | 5.87422 | 23237 ft | 432 kts | 122° |
| 2026-04-21 08:03 | 50.39053 | 5.91318 | 23230 ft | 433 kts | 122° |
| 2026-04-21 08:03 | 50.37440 | 5.95187 | 23229 ft | 432 kts | 122° |
| 2026-04-21 08:03 | 50.35798 | 5.99123 | 23230 ft | 432 kts | 122° |
| 2026-04-21 08:04 | 50.34155 | 6.03053 | 23238 ft | 432 kts | 122° |
| 2026-04-21 08:04 | 50.32510 | 6.06980 | 23229 ft | 431 kts | 122° |
| 2026-04-21 08:04 | 50.31030 | 6.11059 | 23229 ft | 430 kts | 114° |
| 2026-04-21 08:04 | 50.29932 | 6.15395 | 23229 ft | 429 kts | 107° |
| 2026-04-21 08:05 | 50.29143 | 6.19890 | 23224 ft | 429 kts | 100° |
| 2026-04-21 08:05 | 50.28677 | 6.24491 | 23218 ft | 428 kts | 97° |
| 2026-04-21 08:05 | 50.28252 | 6.29102 | 23213 ft | 428 kts | 97° |
| 2026-04-21 08:05 | 50.27804 | 6.33707 | 23210 ft | 429 kts | 98° |
| 2026-04-21 08:06 | 50.27317 | 6.38305 | 23213 ft | 429 kts | 98° |
| 2026-04-21 08:06 | 50.26814 | 6.42900 | 23215 ft | 429 kts | 99° |
| 2026-04-21 08:06 | 50.26308 | 6.47503 | 23211 ft | 430 kts | 99° |
| 2026-04-21 08:06 | 50.25803 | 6.52106 | 23212 ft | 430 kts | 99° |
| 2026-04-21 08:07 | 50.25299 | 6.56717 | 23211 ft | 430 kts | 98° |
| 2026-04-21 08:07 | 50.24795 | 6.61318 | 23205 ft | 430 kts | 98° |
| 2026-04-21 08:07 | 50.24290 | 6.65916 | 23200 ft | 430 kts | 98° |
| 2026-04-21 08:07 | 50.23783 | 6.70519 | 23203 ft | 430 kts | 98° |
| 2026-04-21 08:08 | 50.23276 | 6.75123 | 23203 ft | 430 kts | 98° |
| 2026-04-21 08:08 | 50.22765 | 6.79728 | 23201 ft | 431 kts | 98° |
| 2026-04-21 08:08 | 50.22256 | 6.84344 | 23200 ft | 431 kts | 98° |
| 2026-04-21 08:08 | 50.21885 | 6.88981 | 23190 ft | 431 kts | 94° |
| 2026-04-21 08:09 | 50.21639 | 6.93654 | 23202 ft | 431 kts | 93° |
| 2026-04-21 08:09 | 50.21431 | 6.98321 | 23198 ft | 432 kts | 92° |
| 2026-04-21 08:09 | 50.21214 | 7.03001 | 23187 ft | 432 kts | 93° |
| 2026-04-21 08:09 | 50.20981 | 7.07678 | 23181 ft | 433 kts | 93° |
| 2026-04-21 08:10 | 50.20735 | 7.12367 | 23187 ft | 433 kts | 93° |
| 2026-04-21 08:10 | 50.20480 | 7.17053 | 23189 ft | 434 kts | 94° |
| 2026-04-21 08:10 | 50.20222 | 7.21754 | 23195 ft | 435 kts | 94° |
| 2026-04-21 08:10 | 50.19960 | 7.26458 | 23182 ft | 435 kts | 94° |
| 2026-04-21 08:11 | 50.19641 | 7.31157 | 23180 ft | 436 kts | 97° |
| 2026-04-21 08:11 | 50.19038 | 7.35793 | 23194 ft | 438 kts | 103° |
| 2026-04-21 08:11 | 50.18112 | 7.40334 | 23193 ft | 439 kts | 107° |
| 2026-04-21 08:11 | 50.17126 | 7.44849 | 23194 ft | 440 kts | 107° |
| 2026-04-21 08:12 | 50.16152 | 7.49314 | 23195 ft | 441 kts | 107° |
| 2026-04-21 08:12 | 50.15163 | 7.53902 | 23196 ft | 441 kts | 107° |
| 2026-04-21 08:12 | 50.14192 | 7.58439 | 23186 ft | 441 kts | 107° |
| 2026-04-21 08:12 | 50.13226 | 7.62976 | 23345 ft | 444 kts | 107° |
| 2026-04-21 08:13 | 50.12248 | 7.67561 | 23932 ft | 447 kts | 107° |
| 2026-04-21 08:13 | 50.11262 | 7.72176 | 24534 ft | 450 kts | 107° |
| 2026-04-21 08:13 | 50.10268 | 7.76820 | 25065 ft | 454 kts | 107° |
| 2026-04-21 08:13 | 50.09273 | 7.81450 | 25527 ft | 459 kts | 107° |
| 2026-04-21 08:14 | 50.08239 | 7.86190 | 25976 ft | 465 kts | 109° |
| 2026-04-21 08:14 | 50.06937 | 7.90901 | 26433 ft | 471 kts | 115° |
| 2026-04-21 08:14 | 50.05363 | 7.95314 | 26902 ft | 475 kts | 122° |
| 2026-04-21 08:14 | 50.03510 | 7.99591 | 27353 ft | 479 kts | 123° |
| 2026-04-21 08:15 | 50.01607 | 8.03878 | 27796 ft | 483 kts | 124° |
| 2026-04-21 08:15 | 49.99773 | 8.08006 | 28201 ft | 487 kts | 124° |
| 2026-04-21 08:15 | 49.97850 | 8.12360 | 28622 ft | 491 kts | 123° |
| 2026-04-21 08:15 | 49.95922 | 8.16754 | 29014 ft | 494 kts | 123° |
| 2026-04-21 08:16 | 49.93987 | 8.21179 | 29373 ft | 498 kts | 123° |
| 2026-04-21 08:16 | 49.92033 | 8.25650 | 29702 ft | 502 kts | 123° |
| 2026-04-21 08:16 | 49.90067 | 8.30142 | 30048 ft | 505 kts | 123° |
| 2026-04-21 08:16 | 49.88089 | 8.34652 | 30411 ft | 507 kts | 124° |